Portada
METAR-TAF:

METAR-TAF

Aeroports :

Sandakan, Malàisia

latitud: 05-54N, longitud: 118-04E, altitud: 12 m

Observació

L'informe es va fer fa 1 hora i 13 minuts, a les 01:00 UTC
Vent 9 kt del Nord/Nord-Est, variant entre Nord/Nord-Oest i Est/Nord-Est
Temperatura 28°C
Humitat 79%
Pressió 1011 hPa
Visibilitat: 9000 m
Núvols disperses a una alçada de 1500 ft

METAR: WBKS 180100Z 02009KT 340V060 9000 SCT015 28/24 Q1011

Hora: 10:13 (02:13 UTC)

Pronòstic

L'informe es va fer fa 3 hores i 13 minuts, a les 23:00 UTC
Pronòstic vàlid del 18 a les 00 UTC al 19 a les 00 UTC
Vent 8 kt del Nord-Est
Visibilitat 10 km o més
Escasses núvols a una alçada de 1500 ft
Temporalment
l' 18 a les 00 UTC al 18 a les 06 UTC
Visibilitat: 5000 m
Escasses núvols a una alçada de 800 ft
Núvols disperses a una alçada de 1300 ft
pluja

TAF: WBKS 172300Z 1800/1900 05008KT 9999 FEW015 TEMPO 1800/1806 5000 RA FEW008 SCT013

Observacions i pronòstics meteorològics de més de 4000 aeroports (METAR i TAF).

Les estacions disponibles són els punts grocs i vermells al mapa.

Posi el ratolí al punt desitjat per veure el nom de l'estació.

Feu clic per veure les observacions i els pronòstics meteorològics.

Per canviar el mapa: feu clic els botons verds amb una creu de color negre per apropar; al botó verd amb un guió per allunyar la imatge; o en les fletxes verdes per a mapes adjacents.


METAR-TAF: